sensor_id;sensor_type;location;lat;lon;timestamp;P1;durP1;ratioP1;P2;durP2;ratioP2
8887;SDS011;4480;52.370;9.748;2023-08-30T00:01:52;4.93;;;3.97;;
8887;SDS011;4480;52.370;9.748;2023-08-30T00:04:19;4.80;;;4.40;;
8887;SDS011;4480;52.370;9.748;2023-08-30T00:06:47;5.20;;;4.60;;
8887;SDS011;4480;52.370;9.748;2023-08-30T00:09:14;4.90;;;4.40;;
8887;SDS011;4480;52.370;9.748;2023-08-30T00:11:41;4.60;;;3.90;;
8887;SDS011;4480;52.370;9.748;2023-08-30T00:14:07;5.57;;;4.40;;
8887;SDS011;4480;52.370;9.748;2023-08-30T00:16:35;5.23;;;4.70;;
8887;SDS011;4480;52.370;9.748;2023-08-30T00:19:03;6.00;;;4.73;;
8887;SDS011;4480;52.370;9.748;2023-08-30T00:21:29;4.63;;;4.23;;
8887;SDS011;4480;52.370;9.748;2023-08-30T00:23:58;6.73;;;4.73;;
8887;SDS011;4480;52.370;9.748;2023-08-30T00:26:25;4.70;;;4.20;;
8887;SDS011;4480;52.370;9.748;2023-08-30T00:28:52;5.50;;;4.90;;
8887;SDS011;4480;52.370;9.748;2023-08-30T00:31:19;4.90;;;4.43;;
8887;SDS011;4480;52.370;9.748;2023-08-30T00:33:45;4.80;;;4.30;;
8887;SDS011;4480;52.370;9.748;2023-08-30T00:36:12;5.40;;;4.47;;
8887;SDS011;4480;52.370;9.748;2023-08-30T00:38:39;5.03;;;4.63;;
8887;SDS011;4480;52.370;9.748;2023-08-30T00:41:07;6.73;;;4.57;;
8887;SDS011;4480;52.370;9.748;2023-08-30T00:43:34;4.90;;;4.30;;
8887;SDS011;4480;52.370;9.748;2023-08-30T00:46:01;6.10;;;5.30;;
8887;SDS011;4480;52.370;9.748;2023-08-30T00:48:28;4.87;;;4.47;;
8887;SDS011;4480;52.370;9.748;2023-08-30T00:50:55;5.23;;;4.73;;
8887;SDS011;4480;52.370;9.748;2023-08-30T00:53:21;11.10;;;4.87;;
8887;SDS011;4480;52.370;9.748;2023-08-30T00:55:48;5.43;;;4.90;;
8887;SDS011;4480;52.370;9.748;2023-08-30T00:58:17;4.87;;;4.40;;
8887;SDS011;4480;52.370;9.748;2023-08-30T01:00:44;5.07;;;4.57;;
8887;SDS011;4480;52.370;9.748;2023-08-30T01:03:12;5.47;;;4.97;;
8887;SDS011;4480;52.370;9.748;2023-08-30T01:05:39;10.30;;;5.03;;
8887;SDS011;4480;52.370;9.748;2023-08-30T01:08:05;6.03;;;4.83;;
8887;SDS011;4480;52.370;9.748;2023-08-30T01:10:38;4.97;;;4.53;;
8887;SDS011;4480;52.370;9.748;2023-08-30T01:13:12;5.37;;;4.87;;
8887;SDS011;4480;52.370;9.748;2023-08-30T01:15:46;5.70;;;5.20;;
8887;SDS011;4480;52.370;9.748;2023-08-30T01:18:14;5.67;;;5.17;;
8887;SDS011;4480;52.370;9.748;2023-08-30T01:20:44;5.47;;;4.97;;
8887;SDS011;4480;52.370;9.748;2023-08-30T01:23:15;5.00;;;4.60;;
8887;SDS011;4480;52.370;9.748;2023-08-30T01:25:57;5.30;;;4.80;;
8887;SDS011;4480;52.370;9.748;2023-08-30T01:28:31;5.57;;;5.07;;
8887;SDS011;4480;52.370;9.748;2023-08-30T01:30:59;5.57;;;5.07;;
8887;SDS011;4480;52.370;9.748;2023-08-30T01:33:26;6.23;;;5.63;;
8887;SDS011;4480;52.370;9.748;2023-08-30T01:35:54;6.20;;;5.60;;
8887;SDS011;4480;52.370;9.748;2023-08-30T01:38:23;5.80;;;5.30;;
8887;SDS011;4480;52.370;9.748;2023-08-30T01:40:51;6.43;;;5.40;;
8887;SDS011;4480;52.370;9.748;2023-08-30T01:43:19;4.87;;;4.40;;
8887;SDS011;4480;52.370;9.748;2023-08-30T01:45:48;5.83;;;5.33;;
8887;SDS011;4480;52.370;9.748;2023-08-30T01:48:15;5.87;;;5.33;;
8887;SDS011;4480;52.370;9.748;2023-08-30T01:50:43;8.60;;;5.80;;
8887;SDS011;4480;52.370;9.748;2023-08-30T01:53:12;6.50;;;5.07;;
8887;SDS011;4480;52.370;9.748;2023-08-30T01:55:39;8.50;;;5.20;;
8887;SDS011;4480;52.370;9.748;2023-08-30T01:58:07;6.00;;;5.23;;
8887;SDS011;4480;52.370;9.748;2023-08-30T02:00:34;6.07;;;5.47;;
8887;SDS011;4480;52.370;9.748;2023-08-30T02:03:08;5.60;;;5.07;;
8887;SDS011;4480;52.370;9.748;2023-08-30T02:05:35;6.50;;;5.90;;
8887;SDS011;4480;52.370;9.748;2023-08-30T02:08:08;5.50;;;5.00;;
8887;SDS011;4480;52.370;9.748;2023-08-30T02:10:41;6.00;;;5.50;;
8887;SDS011;4480;52.370;9.748;2023-08-30T02:13:11;5.60;;;5.10;;
8887;SDS011;4480;52.370;9.748;2023-08-30T02:15:39;5.57;;;5.07;;
8887;SDS011;4480;52.370;9.748;2023-08-30T02:18:09;6.03;;;5.43;;
8887;SDS011;4480;52.370;9.748;2023-08-30T02:20:36;5.97;;;5.47;;
8887;SDS011;4480;52.370;9.748;2023-08-30T02:23:03;5.53;;;4.93;;
8887;SDS011;4480;52.370;9.748;2023-08-30T02:25:30;5.70;;;5.20;;
8887;SDS011;4480;52.370;9.748;2023-08-30T02:27:56;5.43;;;4.97;;
8887;SDS011;4480;52.370;9.748;2023-08-30T02:30:23;6.00;;;4.77;;
8887;SDS011;4480;52.370;9.748;2023-08-30T02:32:50;5.20;;;4.80;;
8887;SDS011;4480;52.370;9.748;2023-08-30T02:35:18;6.77;;;5.87;;
8887;SDS011;4480;52.370;9.748;2023-08-30T02:37:45;5.50;;;5.00;;
8887;SDS011;4480;52.370;9.748;2023-08-30T02:40:11;5.77;;;5.27;;
8887;SDS011;4480;52.370;9.748;2023-08-30T02:42:38;7.83;;;4.50;;
8887;SDS011;4480;52.370;9.748;2023-08-30T02:45:05;6.50;;;5.90;;
8887;SDS011;4480;52.370;9.748;2023-08-30T02:47:32;6.20;;;5.70;;
8887;SDS011;4480;52.370;9.748;2023-08-30T02:49:59;6.27;;;5.10;;
8887;SDS011;4480;52.370;9.748;2023-08-30T02:52:27;5.70;;;5.20;;
8887;SDS011;4480;52.370;9.748;2023-08-30T02:54:54;5.87;;;5.37;;
8887;SDS011;4480;52.370;9.748;2023-08-30T02:57:21;5.93;;;5.50;;
8887;SDS011;4480;52.370;9.748;2023-08-30T02:59:47;6.47;;;5.87;;
8887;SDS011;4480;52.370;9.748;2023-08-30T03:02:14;5.97;;;5.47;;
8887;SDS011;4480;52.370;9.748;2023-08-30T03:04:41;6.13;;;5.63;;
8887;SDS011;4480;52.370;9.748;2023-08-30T03:07:07;6.40;;;5.90;;
8887;SDS011;4480;52.370;9.748;2023-08-30T03:09:35;6.40;;;5.70;;
8887;SDS011;4480;52.370;9.748;2023-08-30T03:12:04;12.73;;;6.33;;
8887;SDS011;4480;52.370;9.748;2023-08-30T03:14:31;10.53;;;6.60;;
8887;SDS011;4480;52.370;9.748;2023-08-30T03:16:58;6.73;;;6.13;;
8887;SDS011;4480;52.370;9.748;2023-08-30T03:19:24;7.10;;;5.80;;
8887;SDS011;4480;52.370;9.748;2023-08-30T03:21:51;7.50;;;6.13;;
8887;SDS011;4480;52.370;9.748;2023-08-30T03:24:18;6.70;;;6.00;;
8887;SDS011;4480;52.370;9.748;2023-08-30T03:26:46;6.60;;;6.00;;
8887;SDS011;4480;52.370;9.748;2023-08-30T03:29:13;7.87;;;6.97;;
8887;SDS011;4480;52.370;9.748;2023-08-30T03:31:39;6.57;;;5.97;;
8887;SDS011;4480;52.370;9.748;2023-08-30T03:34:08;8.07;;;7.03;;
8887;SDS011;4480;52.370;9.748;2023-08-30T03:36:35;7.37;;;6.77;;
8887;SDS011;4480;52.370;9.748;2023-08-30T03:39:01;7.47;;;6.77;;
8887;SDS011;4480;52.370;9.748;2023-08-30T03:41:28;7.50;;;6.80;;
8887;SDS011;4480;52.370;9.748;2023-08-30T03:43:56;6.70;;;6.10;;
8887;SDS011;4480;52.370;9.748;2023-08-30T03:46:23;7.27;;;6.67;;
8887;SDS011;4480;52.370;9.748;2023-08-30T03:48:50;6.23;;;5.73;;
8887;SDS011;4480;52.370;9.748;2023-08-30T03:51:17;6.20;;;5.60;;
8887;SDS011;4480;52.370;9.748;2023-08-30T03:53:44;8.20;;;6.07;;
8887;SDS011;4480;52.370;9.748;2023-08-30T03:56:11;7.37;;;6.50;;
8887;SDS011;4480;52.370;9.748;2023-08-30T03:58:37;11.23;;;6.80;;
8887;SDS011;4480;52.370;9.748;2023-08-30T04:01:05;6.93;;;6.33;;
8887;SDS011;4480;52.370;9.748;2023-08-30T04:03:32;7.30;;;6.37;;
8887;SDS011;4480;52.370;9.748;2023-08-30T04:05:59;8.47;;;6.43;;
8887;SDS011;4480;52.370;9.748;2023-08-30T04:08:26;6.87;;;6.13;;
8887;SDS011;4480;52.370;9.748;2023-08-30T04:12:07;8.23;;;7.43;;
8887;SDS011;4480;52.370;9.748;2023-08-30T04:14:34;7.50;;;6.80;;
8887;SDS011;4480;52.370;9.748;2023-08-30T04:17:00;8.37;;;7.10;;
8887;SDS011;4480;52.370;9.748;2023-08-30T04:19:27;6.87;;;6.27;;
8887;SDS011;4480;52.370;9.748;2023-08-30T04:21:54;6.97;;;6.37;;
8887;SDS011;4480;52.370;9.748;2023-08-30T04:24:20;7.40;;;6.70;;
8887;SDS011;4480;52.370;9.748;2023-08-30T04:26:47;7.33;;;6.63;;
8887;SDS011;4480;52.370;9.748;2023-08-30T04:29:17;7.10;;;6.50;;
8887;SDS011;4480;52.370;9.748;2023-08-30T04:31:44;7.70;;;7.10;;
8887;SDS011;4480;52.370;9.748;2023-08-30T04:34:11;7.10;;;6.40;;
8887;SDS011;4480;52.370;9.748;2023-08-30T04:36:38;7.80;;;7.10;;
8887;SDS011;4480;52.370;9.748;2023-08-30T04:39:04;7.50;;;6.83;;
8887;SDS011;4480;52.370;9.748;2023-08-30T04:41:31;7.47;;;6.77;;
8887;SDS011;4480;52.370;9.748;2023-08-30T04:43:58;7.17;;;6.57;;
8887;SDS011;4480;52.370;9.748;2023-08-30T04:46:26;9.73;;;6.20;;
8887;SDS011;4480;52.370;9.748;2023-08-30T04:48:53;7.73;;;7.03;;
8887;SDS011;4480;52.370;9.748;2023-08-30T04:51:20;7.57;;;6.83;;
8887;SDS011;4480;52.370;9.748;2023-08-30T04:53:46;7.70;;;6.97;;
8887;SDS011;4480;52.370;9.748;2023-08-30T04:56:13;9.13;;;6.30;;
8887;SDS011;4480;52.370;9.748;2023-08-30T04:58:43;7.40;;;6.70;;
8887;SDS011;4480;52.370;9.748;2023-08-30T05:01:10;7.70;;;7.00;;
8887;SDS011;4480;52.370;9.748;2023-08-30T05:03:39;8.43;;;6.80;;
8887;SDS011;4480;52.370;9.748;2023-08-30T05:06:06;6.93;;;6.33;;
8887;SDS011;4480;52.370;9.748;2023-08-30T05:08:33;7.70;;;6.60;;
8887;SDS011;4480;52.370;9.748;2023-08-30T05:10:59;6.60;;;6.00;;
8887;SDS011;4480;52.370;9.748;2023-08-30T05:13:28;6.17;;;5.67;;
8887;SDS011;4480;52.370;9.748;2023-08-30T05:15:54;5.67;;;5.17;;
8887;SDS011;4480;52.370;9.748;2023-08-30T05:18:21;6.67;;;5.17;;
8887;SDS011;4480;52.370;9.748;2023-08-30T05:20:49;6.20;;;5.30;;
8887;SDS011;4480;52.370;9.748;2023-08-30T05:23:16;5.13;;;4.73;;
8887;SDS011;4480;52.370;9.748;2023-08-30T05:25:42;7.03;;;5.00;;
8887;SDS011;4480;52.370;9.748;2023-08-30T05:28:09;6.97;;;5.50;;
8887;SDS011;4480;52.370;9.748;2023-08-30T05:30:37;6.47;;;5.03;;
8887;SDS011;4480;52.370;9.748;2023-08-30T05:33:06;5.80;;;4.83;;
8887;SDS011;4480;52.370;9.748;2023-08-30T05:35:33;5.77;;;5.30;;
8887;SDS011;4480;52.370;9.748;2023-08-30T05:38:01;5.90;;;5.43;;
8887;SDS011;4480;52.370;9.748;2023-08-30T05:40:28;5.57;;;4.90;;
8887;SDS011;4480;52.370;9.748;2023-08-30T05:42:55;5.37;;;4.97;;
8887;SDS011;4480;52.370;9.748;2023-08-30T05:45:21;6.90;;;5.67;;
8887;SDS011;4480;52.370;9.748;2023-08-30T05:47:48;4.80;;;4.40;;
8887;SDS011;4480;52.370;9.748;2023-08-30T05:50:15;5.77;;;5.27;;
8887;SDS011;4480;52.370;9.748;2023-08-30T05:52:41;7.43;;;5.37;;
8887;SDS011;4480;52.370;9.748;2023-08-30T05:55:11;5.17;;;4.67;;
8887;SDS011;4480;52.370;9.748;2023-08-30T05:57:37;4.67;;;4.27;;
8887;SDS011;4480;52.370;9.748;2023-08-30T06:00:05;11.13;;;5.40;;
8887;SDS011;4480;52.370;9.748;2023-08-30T06:02:33;5.63;;;5.13;;
8887;SDS011;4480;52.370;9.748;2023-08-30T06:05:00;5.67;;;5.17;;
8887;SDS011;4480;52.370;9.748;2023-08-30T06:07:27;6.03;;;5.43;;
8887;SDS011;4480;52.370;9.748;2023-08-30T06:09:54;6.30;;;5.80;;
8887;SDS011;4480;52.370;9.748;2023-08-30T06:12:22;8.23;;;5.63;;
8887;SDS011;4480;52.370;9.748;2023-08-30T06:14:50;5.50;;;5.00;;
8887;SDS011;4480;52.370;9.748;2023-08-30T06:17:18;5.40;;;5.00;;
8887;SDS011;4480;52.370;9.748;2023-08-30T06:19:45;5.07;;;4.67;;
8887;SDS011;4480;52.370;9.748;2023-08-30T06:22:12;6.30;;;5.30;;
8887;SDS011;4480;52.370;9.748;2023-08-30T06:24:39;6.97;;;5.60;;
8887;SDS011;4480;52.370;9.748;2023-08-30T06:27:06;5.57;;;5.07;;
8887;SDS011;4480;52.370;9.748;2023-08-30T06:29:34;5.63;;;5.17;;
8887;SDS011;4480;52.370;9.748;2023-08-30T06:32:01;8.73;;;5.87;;
8887;SDS011;4480;52.370;9.748;2023-08-30T06:34:28;5.70;;;5.10;;
8887;SDS011;4480;52.370;9.748;2023-08-30T06:36:55;5.70;;;5.20;;
8887;SDS011;4480;52.370;9.748;2023-08-30T06:39:22;8.10;;;5.63;;
8887;SDS011;4480;52.370;9.748;2023-08-30T06:41:49;5.67;;;5.20;;
8887;SDS011;4480;52.370;9.748;2023-08-30T06:44:15;5.60;;;5.10;;
8887;SDS011;4480;52.370;9.748;2023-08-30T06:46:44;7.07;;;5.00;;
8887;SDS011;4480;52.370;9.748;2023-08-30T06:49:11;6.13;;;5.63;;
8887;SDS011;4480;52.370;9.748;2023-08-30T06:51:38;6.00;;;5.50;;
8887;SDS011;4480;52.370;9.748;2023-08-30T06:54:05;5.80;;;5.30;;
8887;SDS011;4480;52.370;9.748;2023-08-30T06:56:31;5.40;;;4.90;;
8887;SDS011;4480;52.370;9.748;2023-08-30T06:58:58;5.30;;;4.83;;
8887;SDS011;4480;52.370;9.748;2023-08-30T07:01:25;6.27;;;5.67;;
8887;SDS011;4480;52.370;9.748;2023-08-30T07:03:53;5.20;;;4.77;;
8887;SDS011;4480;52.370;9.748;2023-08-30T07:06:20;5.17;;;4.67;;
8887;SDS011;4480;52.370;9.748;2023-08-30T07:08:46;5.53;;;5.03;;
8887;SDS011;4480;52.370;9.748;2023-08-30T07:11:13;5.73;;;5.03;;
8887;SDS011;4480;52.370;9.748;2023-08-30T07:13:40;6.33;;;5.70;;
8887;SDS011;4480;52.370;9.748;2023-08-30T07:16:07;5.60;;;5.00;;
8887;SDS011;4480;52.370;9.748;2023-08-30T07:18:34;6.37;;;4.97;;
8887;SDS011;4480;52.370;9.748;2023-08-30T07:21:02;7.00;;;5.47;;
8887;SDS011;4480;52.370;9.748;2023-08-30T07:23:29;7.10;;;5.30;;
8887;SDS011;4480;52.370;9.748;2023-08-30T07:25:55;6.70;;;6.10;;
8887;SDS011;4480;52.370;9.748;2023-08-30T07:28:22;5.27;;;4.73;;
8887;SDS011;4480;52.370;9.748;2023-08-30T07:30:49;9.10;;;5.80;;
8887;SDS011;4480;52.370;9.748;2023-08-30T07:33:16;6.40;;;5.83;;
8887;SDS011;4480;52.370;9.748;2023-08-30T07:35:42;5.80;;;5.30;;
8887;SDS011;4480;52.370;9.748;2023-08-30T07:38:10;5.90;;;5.40;;
8887;SDS011;4480;52.370;9.748;2023-08-30T07:40:37;8.43;;;5.30;;
8887;SDS011;4480;52.370;9.748;2023-08-30T07:43:04;9.60;;;5.70;;
8887;SDS011;4480;52.370;9.748;2023-08-30T07:45:31;7.20;;;6.50;;
8887;SDS011;4480;52.370;9.748;2023-08-30T07:47:57;6.77;;;6.07;;
8887;SDS011;4480;52.370;9.748;2023-08-30T07:50:24;5.60;;;5.10;;
8887;SDS011;4480;52.370;9.748;2023-08-30T07:52:51;6.90;;;5.47;;
8887;SDS011;4480;52.370;9.748;2023-08-30T07:55:19;6.70;;;6.07;;
8887;SDS011;4480;52.370;9.748;2023-08-30T07:57:46;8.07;;;6.83;;
8887;SDS011;4480;52.370;9.748;2023-08-30T08:00:12;6.03;;;5.53;;
8887;SDS011;4480;52.370;9.748;2023-08-30T08:02:40;8.00;;;7.07;;
8887;SDS011;4480;52.370;9.748;2023-08-30T08:05:07;7.33;;;6.60;;
8887;SDS011;4480;52.370;9.748;2023-08-30T08:07:35;6.60;;;6.00;;
8887;SDS011;4480;52.370;9.748;2023-08-30T08:10:04;8.30;;;6.53;;
8887;SDS011;4480;52.370;9.748;2023-08-30T08:12:33;7.60;;;6.23;;
8887;SDS011;4480;52.370;9.748;2023-08-30T08:15:00;7.23;;;6.53;;
8887;SDS011;4480;52.370;9.748;2023-08-30T08:17:27;8.23;;;7.43;;
8887;SDS011;4480;52.370;9.748;2023-08-30T08:19:55;7.70;;;6.87;;
8887;SDS011;4480;52.370;9.748;2023-08-30T08:22:21;7.00;;;5.80;;
8887;SDS011;4480;52.370;9.748;2023-08-30T08:24:48;6.53;;;5.60;;
8887;SDS011;4480;52.370;9.748;2023-08-30T08:27:18;8.67;;;5.70;;
8887;SDS011;4480;52.370;9.748;2023-08-30T08:29:46;9.30;;;6.17;;
8887;SDS011;4480;52.370;9.748;2023-08-30T08:32:13;6.20;;;5.60;;
8887;SDS011;4480;52.370;9.748;2023-08-30T08:34:40;19.10;;;6.67;;
8887;SDS011;4480;52.370;9.748;2023-08-30T08:37:07;6.37;;;5.73;;
8887;SDS011;4480;52.370;9.748;2023-08-30T08:39:33;6.97;;;6.37;;
8887;SDS011;4480;52.370;9.748;2023-08-30T08:42:01;8.00;;;6.40;;
8887;SDS011;4480;52.370;9.748;2023-08-30T08:44:31;8.37;;;7.47;;
8887;SDS011;4480;52.370;9.748;2023-08-30T08:46:59;9.07;;;8.17;;
8887;SDS011;4480;52.370;9.748;2023-08-30T08:49:28;7.97;;;7.27;;
8887;SDS011;4480;52.370;9.748;2023-08-30T08:51:56;10.70;;;7.70;;
8887;SDS011;4480;52.370;9.748;2023-08-30T08:54:23;9.40;;;8.13;;
8887;SDS011;4480;52.370;9.748;2023-08-30T08:56:51;10.70;;;8.33;;
8887;SDS011;4480;52.370;9.748;2023-08-30T08:59:19;10.30;;;7.60;;
8887;SDS011;4480;52.370;9.748;2023-08-30T09:01:47;8.07;;;7.27;;
8887;SDS011;4480;52.370;9.748;2023-08-30T09:04:16;9.73;;;8.40;;
8887;SDS011;4480;52.370;9.748;2023-08-30T09:06:43;11.30;;;10.10;;
8887;SDS011;4480;52.370;9.748;2023-08-30T09:09:10;9.27;;;8.33;;
8887;SDS011;4480;52.370;9.748;2023-08-30T09:11:38;9.43;;;8.30;;
8887;SDS011;4480;52.370;9.748;2023-08-30T09:14:04;10.90;;;9.47;;
8887;SDS011;4480;52.370;9.748;2023-08-30T09:16:31;12.40;;;7.77;;
8887;SDS011;4480;52.370;9.748;2023-08-30T09:18:58;8.97;;;7.97;;
8887;SDS011;4480;52.370;9.748;2023-08-30T09:21:26;13.43;;;9.50;;
8887;SDS011;4480;52.370;9.748;2023-08-30T09:23:57;10.47;;;7.60;;
8887;SDS011;4480;52.370;9.748;2023-08-30T09:26:24;9.47;;;7.90;;
8887;SDS011;4480;52.370;9.748;2023-08-30T09:28:53;10.00;;;7.77;;
8887;SDS011;4480;52.370;9.748;2023-08-30T09:31:20;9.10;;;8.20;;
8887;SDS011;4480;52.370;9.748;2023-08-30T09:33:46;9.40;;;8.57;;
8887;SDS011;4480;52.370;9.748;2023-08-30T09:36:13;11.10;;;9.70;;
8887;SDS011;4480;52.370;9.748;2023-08-30T09:38:47;9.80;;;8.80;;
8887;SDS011;4480;52.370;9.748;2023-08-30T09:41:14;8.70;;;7.80;;
8887;SDS011;4480;52.370;9.748;2023-08-30T09:43:42;9.80;;;8.23;;
8887;SDS011;4480;52.370;9.748;2023-08-30T09:46:09;14.40;;;9.40;;
8887;SDS011;4480;52.370;9.748;2023-08-30T09:48:37;10.40;;;7.67;;
8887;SDS011;4480;52.370;9.748;2023-08-30T09:51:05;10.23;;;8.60;;
8887;SDS011;4480;52.370;9.748;2023-08-30T09:53:42;11.70;;;10.60;;
8887;SDS011;4480;52.370;9.748;2023-08-30T09:56:13;13.20;;;10.33;;
8887;SDS011;4480;52.370;9.748;2023-08-30T09:58:41;12.00;;;10.40;;
8887;SDS011;4480;52.370;9.748;2023-08-30T10:01:09;11.53;;;10.33;;
8887;SDS011;4480;52.370;9.748;2023-08-30T10:03:37;9.87;;;8.87;;
8887;SDS011;4480;52.370;9.748;2023-08-30T10:06:05;14.17;;;9.80;;
8887;SDS011;4480;52.370;9.748;2023-08-30T10:08:32;10.20;;;9.20;;
8887;SDS011;4480;52.370;9.748;2023-08-30T10:11:03;10.50;;;9.07;;
8887;SDS011;4480;52.370;9.748;2023-08-30T10:13:32;9.57;;;8.67;;
8887;SDS011;4480;52.370;9.748;2023-08-30T10:16:04;10.27;;;9.20;;
8887;SDS011;4480;52.370;9.748;2023-08-30T10:18:32;10.77;;;9.70;;
8887;SDS011;4480;52.370;9.748;2023-08-30T10:21:01;10.90;;;9.90;;
8887;SDS011;4480;52.370;9.748;2023-08-30T10:23:33;10.27;;;9.27;;
8887;SDS011;4480;52.370;9.748;2023-08-30T10:26:02;10.80;;;9.70;;
8887;SDS011;4480;52.370;9.748;2023-08-30T10:28:31;10.63;;;9.63;;
8887;SDS011;4480;52.370;9.748;2023-08-30T10:30:58;11.60;;;10.53;;
8887;SDS011;4480;52.370;9.748;2023-08-30T10:33:25;12.37;;;9.90;;
8887;SDS011;4480;52.370;9.748;2023-08-30T10:35:52;11.70;;;9.93;;
8887;SDS011;4480;52.370;9.748;2023-08-30T10:38:27;10.03;;;9.10;;
8887;SDS011;4480;52.370;9.748;2023-08-30T10:40:54;11.20;;;10.10;;
8887;SDS011;4480;52.370;9.748;2023-08-30T10:43:29;13.97;;;10.13;;
8887;SDS011;4480;52.370;9.748;2023-08-30T10:45:58;11.47;;;10.30;;
8887;SDS011;4480;52.370;9.748;2023-08-30T10:48:33;11.03;;;10.00;;
8887;SDS011;4480;52.370;9.748;2023-08-30T10:51:01;11.73;;;10.67;;
8887;SDS011;4480;52.370;9.748;2023-08-30T10:53:29;10.50;;;9.40;;
8887;SDS011;4480;52.370;9.748;2023-08-30T10:56:02;11.73;;;10.10;;
8887;SDS011;4480;52.370;9.748;2023-08-30T10:58:40;9.77;;;8.87;;
8887;SDS011;4480;52.370;9.748;2023-08-30T11:01:07;13.20;;;10.10;;
8887;SDS011;4480;52.370;9.748;2023-08-30T11:03:37;13.30;;;10.23;;
8887;SDS011;4480;52.370;9.748;2023-08-30T11:06:03;10.10;;;9.10;;
8887;SDS011;4480;52.370;9.748;2023-08-30T11:08:30;9.57;;;8.67;;
8887;SDS011;4480;52.370;9.748;2023-08-30T11:11:02;8.60;;;7.77;;
8887;SDS011;4480;52.370;9.748;2023-08-30T11:13:30;10.87;;;9.83;;
8887;SDS011;4480;52.370;9.748;2023-08-30T11:16:00;9.97;;;9.10;;
8887;SDS011;4480;52.370;9.748;2023-08-30T11:18:28;9.77;;;8.77;;
8887;SDS011;4480;52.370;9.748;2023-08-30T11:20:57;9.37;;;8.40;;
8887;SDS011;4480;52.370;9.748;2023-08-30T11:23:25;10.20;;;8.93;;
8887;SDS011;4480;52.370;9.748;2023-08-30T11:25:52;9.27;;;8.37;;
8887;SDS011;4480;52.370;9.748;2023-08-30T11:28:22;7.70;;;6.90;;
8887;SDS011;4480;52.370;9.748;2023-08-30T11:30:49;8.37;;;6.93;;
8887;SDS011;4480;52.370;9.748;2023-08-30T11:33:18;7.43;;;6.60;;
8887;SDS011;4480;52.370;9.748;2023-08-30T11:35:45;7.77;;;6.10;;
8887;SDS011;4480;52.370;9.748;2023-08-30T11:38:14;5.73;;;5.13;;
8887;SDS011;4480;52.370;9.748;2023-08-30T11:40:41;5.53;;;5.00;;
8887;SDS011;4480;52.370;9.748;2023-08-30T11:43:08;5.53;;;5.03;;
8887;SDS011;4480;52.370;9.748;2023-08-30T11:45:35;5.77;;;5.27;;
8887;SDS011;4480;52.370;9.748;2023-08-30T11:48:02;6.40;;;4.83;;
8887;SDS011;4480;52.370;9.748;2023-08-30T11:50:31;4.90;;;4.50;;
8887;SDS011;4480;52.370;9.748;2023-08-30T11:52:58;5.97;;;5.10;;
8887;SDS011;4480;52.370;9.748;2023-08-30T11:55:25;5.90;;;4.37;;
8887;SDS011;4480;52.370;9.748;2023-08-30T11:57:52;4.90;;;4.50;;
8887;SDS011;4480;52.370;9.748;2023-08-30T12:00:19;5.77;;;5.17;;
8887;SDS011;4480;52.370;9.748;2023-08-30T12:02:47;5.20;;;4.70;;
8887;SDS011;4480;52.370;9.748;2023-08-30T12:05:14;4.60;;;4.20;;
8887;SDS011;4480;52.370;9.748;2023-08-30T12:07:42;5.03;;;3.90;;
8887;SDS011;4480;52.370;9.748;2023-08-30T12:10:09;4.97;;;4.00;;
8887;SDS011;4480;52.370;9.748;2023-08-30T12:12:37;5.83;;;4.60;;
8887;SDS011;4480;52.370;9.748;2023-08-30T12:15:07;7.20;;;3.87;;
8887;SDS011;4480;52.370;9.748;2023-08-30T12:17:34;3.77;;;3.37;;
8887;SDS011;4480;52.370;9.748;2023-08-30T12:20:02;5.53;;;3.33;;
8887;SDS011;4480;52.370;9.748;2023-08-30T12:22:36;3.67;;;3.33;;
8887;SDS011;4480;52.370;9.748;2023-08-30T12:25:15;4.80;;;3.60;;
8887;SDS011;4480;52.370;9.748;2023-08-30T12:27:42;3.97;;;3.57;;
8887;SDS011;4480;52.370;9.748;2023-08-30T12:30:09;3.87;;;3.57;;
8887;SDS011;4480;52.370;9.748;2023-08-30T12:32:36;3.77;;;3.03;;
8887;SDS011;4480;52.370;9.748;2023-08-30T12:35:03;3.90;;;3.33;;
8887;SDS011;4480;52.370;9.748;2023-08-30T12:37:30;5.37;;;3.63;;
8887;SDS011;4480;52.370;9.748;2023-08-30T12:39:57;4.53;;;3.53;;
8887;SDS011;4480;52.370;9.748;2023-08-30T12:42:25;4.53;;;3.53;;
8887;SDS011;4480;52.370;9.748;2023-08-30T12:44:52;3.87;;;3.50;;
8887;SDS011;4480;52.370;9.748;2023-08-30T12:47:19;6.13;;;3.50;;
8887;SDS011;4480;52.370;9.748;2023-08-30T12:49:46;4.10;;;3.70;;
8887;SDS011;4480;52.370;9.748;2023-08-30T12:52:12;3.87;;;3.47;;
8887;SDS011;4480;52.370;9.748;2023-08-30T12:54:41;5.73;;;3.80;;
8887;SDS011;4480;52.370;9.748;2023-08-30T12:57:07;5.53;;;4.00;;
8887;SDS011;4480;52.370;9.748;2023-08-30T12:59:35;4.57;;;3.73;;
8887;SDS011;4480;52.370;9.748;2023-08-30T13:02:02;3.87;;;3.57;;
8887;SDS011;4480;52.370;9.748;2023-08-30T13:04:29;5.60;;;3.33;;
8887;SDS011;4480;52.370;9.748;2023-08-30T13:06:56;3.13;;;2.83;;
8887;SDS011;4480;52.370;9.748;2023-08-30T13:09:23;4.70;;;3.40;;
8887;SDS011;4480;52.370;9.748;2023-08-30T13:11:49;6.13;;;5.20;;
8887;SDS011;4480;52.370;9.748;2023-08-30T13:14:16;6.73;;;4.47;;
8887;SDS011;4480;52.370;9.748;2023-08-30T13:16:44;5.30;;;4.80;;
8887;SDS011;4480;52.370;9.748;2023-08-30T13:19:11;5.40;;;4.27;;
8887;SDS011;4480;52.370;9.748;2023-08-30T13:21:38;5.00;;;4.50;;
8887;SDS011;4480;52.370;9.748;2023-08-30T13:24:05;6.67;;;4.50;;
8887;SDS011;4480;52.370;9.748;2023-08-30T13:26:32;5.83;;;4.63;;
8887;SDS011;4480;52.370;9.748;2023-08-30T13:28:58;6.00;;;4.83;;
8887;SDS011;4480;52.370;9.748;2023-08-30T13:31:27;5.53;;;5.00;;
8887;SDS011;4480;52.370;9.748;2023-08-30T13:33:55;5.37;;;4.07;;
8887;SDS011;4480;52.370;9.748;2023-08-30T13:36:22;5.77;;;4.50;;
8887;SDS011;4480;52.370;9.748;2023-08-30T13:38:48;5.37;;;4.80;;
8887;SDS011;4480;52.370;9.748;2023-08-30T13:41:15;6.20;;;5.50;;
8887;SDS011;4480;52.370;9.748;2023-08-30T13:43:42;4.90;;;4.40;;
8887;SDS011;4480;52.370;9.748;2023-08-30T13:46:08;5.50;;;4.97;;
8887;SDS011;4480;52.370;9.748;2023-08-30T13:48:35;5.50;;;5.00;;
8887;SDS011;4480;52.370;9.748;2023-08-30T13:51:03;5.00;;;4.50;;
8887;SDS011;4480;52.370;9.748;2023-08-30T13:53:30;5.47;;;4.50;;
8887;SDS011;4480;52.370;9.748;2023-08-30T13:55:57;6.00;;;5.37;;
8887;SDS011;4480;52.370;9.748;2023-08-30T13:58:23;5.73;;;5.13;;
8887;SDS011;4480;52.370;9.748;2023-08-30T14:00:50;6.73;;;5.10;;
8887;SDS011;4480;52.370;9.748;2023-08-30T14:03:17;5.50;;;5.00;;
8887;SDS011;4480;52.370;9.748;2023-08-30T14:05:44;5.80;;;4.43;;
8887;SDS011;4480;52.370;9.748;2023-08-30T14:08:12;5.87;;;4.80;;
8887;SDS011;4480;52.370;9.748;2023-08-30T14:10:38;6.70;;;4.70;;
8887;SDS011;4480;52.370;9.748;2023-08-30T14:13:05;5.00;;;4.53;;
8887;SDS011;4480;52.370;9.748;2023-08-30T14:15:32;7.30;;;4.57;;
8887;SDS011;4480;52.370;9.748;2023-08-30T14:17:59;9.30;;;4.47;;
8887;SDS011;4480;52.370;9.748;2023-08-30T14:20:25;6.10;;;5.50;;
8887;SDS011;4480;52.370;9.748;2023-08-30T14:22:53;5.10;;;4.60;;
8887;SDS011;4480;52.370;9.748;2023-08-30T14:25:21;6.20;;;4.83;;
8887;SDS011;4480;52.370;9.748;2023-08-30T14:27:48;5.63;;;4.93;;
8887;SDS011;4480;52.370;9.748;2023-08-30T14:30:15;5.20;;;4.80;;
8887;SDS011;4480;52.370;9.748;2023-08-30T14:32:42;6.43;;;4.33;;
8887;SDS011;4480;52.370;9.748;2023-08-30T14:35:09;6.03;;;5.53;;
8887;SDS011;4480;52.370;9.748;2023-08-30T14:37:37;5.87;;;5.27;;
8887;SDS011;4480;52.370;9.748;2023-08-30T14:40:05;5.43;;;4.60;;
8887;SDS011;4480;52.370;9.748;2023-08-30T14:42:33;5.00;;;4.50;;
8887;SDS011;4480;52.370;9.748;2023-08-30T14:45:00;4.40;;;4.10;;
8887;SDS011;4480;52.370;9.748;2023-08-30T14:47:28;5.57;;;4.50;;
8887;SDS011;4480;52.370;9.748;2023-08-30T14:49:56;5.80;;;5.20;;
8887;SDS011;4480;52.370;9.748;2023-08-30T14:52:22;8.00;;;5.73;;
8887;SDS011;4480;52.370;9.748;2023-08-30T14:54:49;7.30;;;6.10;;
8887;SDS011;4480;52.370;9.748;2023-08-30T14:57:16;8.43;;;7.67;;
8887;SDS011;4480;52.370;9.748;2023-08-30T14:59:44;9.70;;;8.80;;
8887;SDS011;4480;52.370;9.748;2023-08-30T15:02:10;9.87;;;8.87;;
8887;SDS011;4480;52.370;9.748;2023-08-30T15:04:37;11.40;;;9.63;;
8887;SDS011;4480;52.370;9.748;2023-08-30T15:07:04;9.83;;;8.93;;
8887;SDS011;4480;52.370;9.748;2023-08-30T15:09:31;12.37;;;11.27;;
8887;SDS011;4480;52.370;9.748;2023-08-30T15:11:57;13.33;;;11.77;;
8887;SDS011;4480;52.370;9.748;2023-08-30T15:14:24;14.27;;;12.97;;
8887;SDS011;4480;52.370;9.748;2023-08-30T15:16:53;13.30;;;12.10;;